sensor_id;sensor_type;location;lat;lon;timestamp;pressure;altitude;pressure_sealevel;temperature;humidity
58072;BME280;60383;46.626;18.866;2023-03-04T00:01:01;100633.91;;;3.99;90.60
58072;BME280;60383;46.626;18.866;2023-03-04T00:03:26;100637.28;;;3.77;91.61
58072;BME280;60383;46.626;18.866;2023-03-04T00:05:52;100634.78;;;3.74;91.85
58072;BME280;60383;46.626;18.866;2023-03-04T00:08:17;100635.22;;;3.80;90.99
58072;BME280;60383;46.626;18.866;2023-03-04T00:10:43;100637.25;;;3.64;91.87
58072;BME280;60383;46.626;18.866;2023-03-04T00:13:09;100640.81;;;3.64;91.62
58072;BME280;60383;46.626;18.866;2023-03-04T00:15:34;100640.63;;;3.67;91.38
58072;BME280;60383;46.626;18.866;2023-03-04T00:18:00;100634.13;;;3.70;91.57
58072;BME280;60383;46.626;18.866;2023-03-04T00:20:25;100636.50;;;3.75;90.42
58072;BME280;60383;46.626;18.866;2023-03-04T00:22:51;100630.19;;;3.74;90.32
58072;BME280;60383;46.626;18.866;2023-03-04T00:25:16;100632.69;;;3.64;90.43
58072;BME280;60383;46.626;18.866;2023-03-04T00:27:42;100630.13;;;3.50;90.71
58072;BME280;60383;46.626;18.866;2023-03-04T00:30:08;100638.63;;;3.44;90.53
58072;BME280;60383;46.626;18.866;2023-03-04T00:32:33;100633.69;;;3.50;90.70
58072;BME280;60383;46.626;18.866;2023-03-04T00:34:59;100626.41;;;3.51;90.05
58072;BME280;60383;46.626;18.866;2023-03-04T00:37:24;100626.41;;;3.51;90.04
58072;BME280;60383;46.626;18.866;2023-03-04T00:39:50;100626.41;;;3.38;90.77
58072;BME280;60383;46.626;18.866;2023-03-04T00:42:16;100629.19;;;3.36;90.37
58072;BME280;60383;46.626;18.866;2023-03-04T00:44:42;100629.78;;;3.42;90.48
58072;BME280;60383;46.626;18.866;2023-03-04T00:47:07;100621.94;;;3.11;91.05
58072;BME280;60383;46.626;18.866;2023-03-04T00:49:33;100624.88;;;3.34;90.64
58072;BME280;60383;46.626;18.866;2023-03-04T00:51:58;100621.66;;;3.42;90.04
58072;BME280;60383;46.626;18.866;2023-03-04T00:54:24;100621.66;;;3.42;89.90
58072;BME280;60383;46.626;18.866;2023-03-04T00:56:49;100621.63;;;3.29;90.15
58072;BME280;60383;46.626;18.866;2023-03-04T00:59:15;100611.03;;;3.26;90.46
58072;BME280;60383;46.626;18.866;2023-03-04T01:01:40;100610.75;;;3.16;90.42
58072;BME280;60383;46.626;18.866;2023-03-04T01:04:06;100614.34;;;3.16;90.75
58072;BME280;60383;46.626;18.866;2023-03-04T01:06:31;100609.28;;;3.25;89.81
58072;BME280;60383;46.626;18.866;2023-03-04T01:08:57;100605.88;;;3.08;90.18
58072;BME280;60383;46.626;18.866;2023-03-04T01:11:22;100607.31;;;3.14;89.60
58072;BME280;60383;46.626;18.866;2023-03-04T01:13:48;100608.28;;;3.13;89.95
58072;BME280;60383;46.626;18.866;2023-03-04T01:16:13;100604.44;;;3.02;90.35
58072;BME280;60383;46.626;18.866;2023-03-04T01:18:39;100606.09;;;3.05;90.22
58072;BME280;60383;46.626;18.866;2023-03-04T01:21:05;100602.63;;;3.16;89.25
58072;BME280;60383;46.626;18.866;2023-03-04T01:23:30;100610.63;;;3.04;89.29
58072;BME280;60383;46.626;18.866;2023-03-04T01:25:56;100598.50;;;2.97;89.75
58072;BME280;60383;46.626;18.866;2023-03-04T01:28:22;100603.72;;;3.00;89.17
58072;BME280;60383;46.626;18.866;2023-03-04T01:30:47;100597.75;;;3.08;89.23
58072;BME280;60383;46.626;18.866;2023-03-04T01:33:13;100596.50;;;3.14;88.33
58072;BME280;60383;46.626;18.866;2023-03-04T01:35:38;100596.59;;;3.12;88.20
58072;BME280;60383;46.626;18.866;2023-03-04T01:38:04;100592.22;;;3.10;87.78
58072;BME280;60383;46.626;18.866;2023-03-04T01:40:30;100590.41;;;3.10;87.77
58072;BME280;60383;46.626;18.866;2023-03-04T01:42:55;100590.31;;;3.12;87.19
58072;BME280;60383;46.626;18.866;2023-03-04T01:45:21;100587.13;;;2.92;87.82
58072;BME280;60383;46.626;18.866;2023-03-04T01:47:48;100585.97;;;3.09;86.66
58072;BME280;60383;46.626;18.866;2023-03-04T01:50:29;100583.13;;;2.98;87.24
58072;BME280;60383;46.626;18.866;2023-03-04T01:52:56;100586.56;;;2.87;87.37
58072;BME280;60383;46.626;18.866;2023-03-04T01:55:22;100584.06;;;2.84;87.03
58072;BME280;60383;46.626;18.866;2023-03-04T01:57:49;100585.41;;;2.64;87.36
58072;BME280;60383;46.626;18.866;2023-03-04T02:00:22;100580.88;;;2.64;87.75
58072;BME280;60383;46.626;18.866;2023-03-04T02:02:52;100586.13;;;2.53;88.24
58072;BME280;60383;46.626;18.866;2023-03-04T02:05:18;100577.31;;;2.64;87.71
58072;BME280;60383;46.626;18.866;2023-03-04T02:07:45;100579.00;;;2.65;86.98
58072;BME280;60383;46.626;18.866;2023-03-04T02:10:11;100576.94;;;2.55;87.29
58072;BME280;60383;46.626;18.866;2023-03-04T02:12:37;100570.72;;;2.68;86.61
58072;BME280;60383;46.626;18.866;2023-03-04T02:15:03;100577.63;;;2.72;86.32
58072;BME280;60383;46.626;18.866;2023-03-04T02:17:31;100570.19;;;2.76;85.57
58072;BME280;60383;46.626;18.866;2023-03-04T02:22:38;100562.13;;;2.61;85.96
58072;BME280;60383;46.626;18.866;2023-03-04T02:25:10;100560.72;;;2.55;85.70
58072;BME280;60383;46.626;18.866;2023-03-04T02:27:37;100558.06;;;2.41;86.25
58072;BME280;60383;46.626;18.866;2023-03-04T02:30:03;100552.09;;;2.36;85.83
58072;BME280;60383;46.626;18.866;2023-03-04T02:32:28;100554.41;;;2.42;85.61
58072;BME280;60383;46.626;18.866;2023-03-04T02:34:55;100541.03;;;2.53;84.98
58072;BME280;60383;46.626;18.866;2023-03-04T02:37:20;100546.66;;;2.50;84.69
58072;BME280;60383;46.626;18.866;2023-03-04T02:39:47;100542.50;;;2.45;85.05
58072;BME280;60383;46.626;18.866;2023-03-04T02:42:13;100536.56;;;2.39;84.50
58072;BME280;60383;46.626;18.866;2023-03-04T02:44:41;100533.72;;;2.41;84.42
58072;BME280;60383;46.626;18.866;2023-03-04T02:47:10;100540.50;;;2.34;83.97
58072;BME280;60383;46.626;18.866;2023-03-04T02:49:38;100537.94;;;2.32;83.42
58072;BME280;60383;46.626;18.866;2023-03-04T02:52:13;100534.56;;;2.29;83.33
58072;BME280;60383;46.626;18.866;2023-03-04T02:54:39;100534.81;;;2.38;82.34
58072;BME280;60383;46.626;18.866;2023-03-04T02:57:08;100535.56;;;2.40;81.75
58072;BME280;60383;46.626;18.866;2023-03-04T02:59:35;100532.94;;;2.26;82.27
58072;BME280;60383;46.626;18.866;2023-03-04T03:02:01;100530.44;;;2.50;80.42
58072;BME280;60383;46.626;18.866;2023-03-04T03:04:27;100532.78;;;2.42;80.41
58072;BME280;60383;46.626;18.866;2023-03-04T03:06:53;100529.66;;;2.48;80.03
58072;BME280;60383;46.626;18.866;2023-03-04T03:09:19;100531.22;;;2.38;80.48
58072;BME280;60383;46.626;18.866;2023-03-04T03:11:45;100538.72;;;2.47;79.23
58072;BME280;60383;46.626;18.866;2023-03-04T03:14:10;100536.88;;;2.48;79.31
58072;BME280;60383;46.626;18.866;2023-03-04T03:16:36;100532.97;;;2.39;78.85
58072;BME280;60383;46.626;18.866;2023-03-04T03:19:01;100533.31;;;2.47;78.64
58072;BME280;60383;46.626;18.866;2023-03-04T03:21:27;100537.00;;;2.46;78.20
58072;BME280;60383;46.626;18.866;2023-03-04T03:23:52;100529.44;;;2.51;77.84
58072;BME280;60383;46.626;18.866;2023-03-04T03:26:18;100530.22;;;2.26;78.11
58072;BME280;60383;46.626;18.866;2023-03-04T03:28:44;100517.56;;;2.27;78.84
58072;BME280;60383;46.626;18.866;2023-03-04T03:31:09;100520.75;;;2.33;78.34
58072;BME280;60383;46.626;18.866;2023-03-04T03:33:35;100519.34;;;2.40;77.72
58072;BME280;60383;46.626;18.866;2023-03-04T03:36:00;100529.72;;;2.34;77.39
58072;BME280;60383;46.626;18.866;2023-03-04T03:38:26;100528.63;;;2.36;77.15
58072;BME280;60383;46.626;18.866;2023-03-04T03:40:52;100530.22;;;2.26;77.26
58072;BME280;60383;46.626;18.866;2023-03-04T03:43:18;100524.44;;;2.18;77.37
58072;BME280;60383;46.626;18.866;2023-03-04T03:45:43;100531.13;;;2.12;77.38
58072;BME280;60383;46.626;18.866;2023-03-04T03:48:09;100527.97;;;2.05;77.76
58072;BME280;60383;46.626;18.866;2023-03-04T03:50:34;100531.72;;;2.03;77.80
58072;BME280;60383;46.626;18.866;2023-03-04T03:53:00;100536.16;;;1.89;78.48
58072;BME280;60383;46.626;18.866;2023-03-04T03:55:26;100532.81;;;1.86;78.37
58072;BME280;60383;46.626;18.866;2023-03-04T03:57:52;100534.06;;;1.95;78.04
58072;BME280;60383;46.626;18.866;2023-03-04T04:00:18;100538.13;;;1.87;78.74
58072;BME280;60383;46.626;18.866;2023-03-04T04:02:43;100533.97;;;1.96;78.16
58072;BME280;60383;46.626;18.866;2023-03-04T04:05:09;100527.13;;;1.76;78.44
58072;BME280;60383;46.626;18.866;2023-03-04T04:07:36;100536.28;;;1.73;79.26
58072;BME280;60383;46.626;18.866;2023-03-04T04:10:02;100533.03;;;1.68;79.30
58072;BME280;60383;46.626;18.866;2023-03-04T04:12:28;100532.25;;;1.66;79.43
58072;BME280;60383;46.626;18.866;2023-03-04T04:14:53;100527.34;;;1.58;79.02
58072;BME280;60383;46.626;18.866;2023-03-04T04:17:19;100536.13;;;1.62;79.25
58072;BME280;60383;46.626;18.866;2023-03-04T04:19:44;100529.06;;;1.74;79.44
58072;BME280;60383;46.626;18.866;2023-03-04T04:22:14;100531.66;;;1.75;80.34
58072;BME280;60383;46.626;18.866;2023-03-04T04:24:40;100528.31;;;1.72;77.95
58072;BME280;60383;46.626;18.866;2023-03-04T04:27:06;100532.63;;;1.74;78.05
58072;BME280;60383;46.626;18.866;2023-03-04T04:29:31;100526.84;;;1.66;78.20
58072;BME280;60383;46.626;18.866;2023-03-04T04:31:56;100524.66;;;1.58;78.39
58072;BME280;60383;46.626;18.866;2023-03-04T04:34:22;100530.81;;;1.61;78.17
58072;BME280;60383;46.626;18.866;2023-03-04T04:36:48;100532.34;;;1.65;77.44
58072;BME280;60383;46.626;18.866;2023-03-04T04:39:13;100529.47;;;1.53;77.86
58072;BME280;60383;46.626;18.866;2023-03-04T04:41:41;100525.50;;;1.59;77.19
58072;BME280;60383;46.626;18.866;2023-03-04T04:44:08;100520.72;;;1.50;77.49
58072;BME280;60383;46.626;18.866;2023-03-04T04:46:34;100519.34;;;1.57;76.75
58072;BME280;60383;46.626;18.866;2023-03-04T04:48:59;100524.81;;;1.55;76.95
58072;BME280;60383;46.626;18.866;2023-03-04T04:51:25;100529.66;;;1.65;75.54
58072;BME280;60383;46.626;18.866;2023-03-04T04:53:50;100531.28;;;1.53;76.18
58072;BME280;60383;46.626;18.866;2023-03-04T04:56:19;100530.72;;;1.48;76.54
58072;BME280;60383;46.626;18.866;2023-03-04T04:58:46;100526.78;;;1.39;76.81
58072;BME280;60383;46.626;18.866;2023-03-04T05:01:13;100529.06;;;1.31;76.86
58072;BME280;60383;46.626;18.866;2023-03-04T05:03:38;100533.53;;;1.32;77.17
58072;BME280;60383;46.626;18.866;2023-03-04T05:06:06;100528.50;;;1.40;76.63
58072;BME280;60383;46.626;18.866;2023-03-04T05:08:33;100527.34;;;1.44;76.70
58072;BME280;60383;46.626;18.866;2023-03-04T05:10:59;100530.22;;;1.41;76.29
58072;BME280;60383;46.626;18.866;2023-03-04T05:13:24;100532.44;;;1.34;77.21
58072;BME280;60383;46.626;18.866;2023-03-04T05:15:51;100529.94;;;1.31;76.67
58072;BME280;60383;46.626;18.866;2023-03-04T05:18:18;100531.28;;;1.38;76.25
58072;BME280;60383;46.626;18.866;2023-03-04T05:20:43;100521.84;;;1.31;76.77
58072;BME280;60383;46.626;18.866;2023-03-04T05:23:09;100526.47;;;1.29;76.45
58072;BME280;60383;46.626;18.866;2023-03-04T05:25:34;100514.03;;;1.41;76.23
58072;BME280;60383;46.626;18.866;2023-03-04T05:28:00;100520.72;;;1.50;75.74
58072;BME280;60383;46.626;18.866;2023-03-04T05:30:26;100520.59;;;1.51;75.61
58072;BME280;60383;46.626;18.866;2023-03-04T05:32:52;100522.13;;;1.55;75.77
58072;BME280;60383;46.626;18.866;2023-03-04T05:35:17;100522.72;;;1.61;75.36
58072;BME280;60383;46.626;18.866;2023-03-04T05:37:43;100523.28;;;1.66;75.00
58072;BME280;60383;46.626;18.866;2023-03-04T05:40:09;100528.47;;;1.69;74.32
58072;BME280;60383;46.626;18.866;2023-03-04T05:42:34;100525.63;;;1.99;73.85
58072;BME280;60383;46.626;18.866;2023-03-04T05:45:00;100518.69;;;2.10;73.74
58072;BME280;60383;46.626;18.866;2023-03-04T05:47:25;100525.88;;;2.23;73.12
58072;BME280;60383;46.626;18.866;2023-03-04T05:49:51;100526.72;;;2.51;72.48
58072;BME280;60383;46.626;18.866;2023-03-04T05:52:16;100529.03;;;2.98;70.12
58072;BME280;60383;46.626;18.866;2023-03-04T05:54:42;100526.66;;;3.45;68.77
58072;BME280;60383;46.626;18.866;2023-03-04T05:57:07;100531.31;;;4.06;66.60
58072;BME280;60383;46.626;18.866;2023-03-04T05:59:32;100517.78;;;4.54;65.53
58072;BME280;60383;46.626;18.866;2023-03-04T06:01:58;100527.09;;;4.99;63.04
58072;BME280;60383;46.626;18.866;2023-03-04T06:04:23;100532.31;;;5.13;62.46
58072;BME280;60383;46.626;18.866;2023-03-04T06:06:49;100530.59;;;5.23;61.16
58072;BME280;60383;46.626;18.866;2023-03-04T06:09:14;100536.19;;;5.44;60.40
58072;BME280;60383;46.626;18.866;2023-03-04T06:11:40;100541.59;;;5.33;59.98
58072;BME280;60383;46.626;18.866;2023-03-04T06:14:05;100542.91;;;5.16;61.20
58072;BME280;60383;46.626;18.866;2023-03-04T06:16:31;100540.19;;;5.16;60.29
58072;BME280;60383;46.626;18.866;2023-03-04T06:18:56;100547.69;;;5.01;61.30
58072;BME280;60383;46.626;18.866;2023-03-04T06:21:22;100549.22;;;5.17;61.83
58072;BME280;60383;46.626;18.866;2023-03-04T06:23:47;100555.47;;;5.64;59.26
58072;BME280;60383;46.626;18.866;2023-03-04T06:26:13;100557.63;;;6.50;57.49
58072;BME280;60383;46.626;18.866;2023-03-04T06:28:43;100560.00;;;6.87;56.92
58072;BME280;60383;46.626;18.866;2023-03-04T06:31:09;100556.41;;;7.71;54.73
58072;BME280;60383;46.626;18.866;2023-03-04T06:33:35;100560.31;;;7.78;54.24
58072;BME280;60383;46.626;18.866;2023-03-04T06:36:01;100561.50;;;8.26;53.52
58072;BME280;60383;46.626;18.866;2023-03-04T06:38:26;100555.03;;;8.27;53.93
58072;BME280;60383;46.626;18.866;2023-03-04T06:40:52;100552.56;;;8.14;52.78
58072;BME280;60383;46.626;18.866;2023-03-04T06:43:18;100559.25;;;8.00;53.83
58072;BME280;60383;46.626;18.866;2023-03-04T06:45:44;100553.97;;;8.09;53.60
58072;BME280;60383;46.626;18.866;2023-03-04T06:48:09;100557.69;;;8.08;53.66
58072;BME280;60383;46.626;18.866;2023-03-04T06:50:35;100561.41;;;8.07;53.24
58072;BME280;60383;46.626;18.866;2023-03-04T06:53:00;100555.13;;;8.16;53.30
58072;BME280;60383;46.626;18.866;2023-03-04T06:55:26;100562.34;;;8.27;53.06
58072;BME280;60383;46.626;18.866;2023-03-04T06:57:51;100555.97;;;8.07;53.27
58072;BME280;60383;46.626;18.866;2023-03-04T07:00:17;100557.13;;;8.14;53.96
58072;BME280;60383;46.626;18.866;2023-03-04T07:02:43;100562.47;;;8.15;53.52
58072;BME280;60383;46.626;18.866;2023-03-04T07:05:10;100556.03;;;8.17;53.86
58072;BME280;60383;46.626;18.866;2023-03-04T07:07:36;100545.81;;;8.19;53.21
58072;BME280;60383;46.626;18.866;2023-03-04T07:10:03;100561.63;;;7.84;54.25
58072;BME280;60383;46.626;18.866;2023-03-04T07:12:28;100561.16;;;8.10;53.51
58072;BME280;60383;46.626;18.866;2023-03-04T07:14:54;100562.72;;;8.03;54.43
58072;BME280;60383;46.626;18.866;2023-03-04T07:17:19;100562.75;;;8.22;54.30
58072;BME280;60383;46.626;18.866;2023-03-04T07:19:45;100564.94;;;8.28;54.95
58072;BME280;60383;46.626;18.866;2023-03-04T07:22:10;100554.69;;;8.52;54.10
58072;BME280;60383;46.626;18.866;2023-03-04T07:24:35;100556.72;;;8.59;54.53
58072;BME280;60383;46.626;18.866;2023-03-04T07:27:01;100556.56;;;8.71;54.15
58072;BME280;60383;46.626;18.866;2023-03-04T07:29:26;100559.56;;;8.48;52.91
58072;BME280;60383;46.626;18.866;2023-03-04T07:31:52;100564.09;;;8.78;52.98
58072;BME280;60383;46.626;18.866;2023-03-04T07:34:17;100561.19;;;8.90;52.76
58072;BME280;60383;46.626;18.866;2023-03-04T07:36:43;100564.94;;;8.99;53.00
58072;BME280;60383;46.626;18.866;2023-03-04T07:39:10;100564.50;;;9.23;52.41
58072;BME280;60383;46.626;18.866;2023-03-04T07:41:37;100565.63;;;9.30;53.44
58072;BME280;60383;46.626;18.866;2023-03-04T07:44:04;100564.63;;;9.31;51.68
58072;BME280;60383;46.626;18.866;2023-03-04T07:46:30;100564.88;;;9.38;50.49
58072;BME280;60383;46.626;18.866;2023-03-04T07:48:56;100565.63;;;9.30;51.32
58072;BME280;60383;46.626;18.866;2023-03-04T07:51:24;100551.94;;;9.50;51.73
58072;BME280;60383;46.626;18.866;2023-03-04T07:53:54;100554.59;;;9.69;49.92
58072;BME280;60383;46.626;18.866;2023-03-04T07:56:22;100551.19;;;9.67;48.99
58072;BME280;60383;46.626;18.866;2023-03-04T07:58:49;100556.34;;;9.70;49.62
58072;BME280;60383;46.626;18.866;2023-03-04T08:01:29;100548.28;;;9.69;49.11
58072;BME280;60383;46.626;18.866;2023-03-04T08:03:55;100551.31;;;10.03;48.28
58072;BME280;60383;46.626;18.866;2023-03-04T08:06:21;100556.13;;;10.19;47.43
58072;BME280;60383;46.626;18.866;2023-03-04T08:08:47;100559.69;;;10.30;47.41
58072;BME280;60383;46.626;18.866;2023-03-04T08:11:18;100549.09;;;10.45;45.83
58072;BME280;60383;46.626;18.866;2023-03-04T08:13:45;100557.25;;;10.27;47.49
58072;BME280;60383;46.626;18.866;2023-03-04T08:16:15;100556.25;;;10.55;46.61
58072;BME280;60383;46.626;18.866;2023-03-04T08:18:42;100543.97;;;10.60;45.08
58072;BME280;60383;46.626;18.866;2023-03-04T08:21:11;100543.28;;;10.76;46.19
58072;BME280;60383;46.626;18.866;2023-03-04T08:23:37;100547.03;;;10.93;45.39
58072;BME280;60383;46.626;18.866;2023-03-04T08:26:08;100538.47;;;11.14;46.32
58072;BME280;60383;46.626;18.866;2023-03-04T08:28:34;100541.75;;;11.35;43.54
58072;BME280;60383;46.626;18.866;2023-03-04T08:30:59;100536.31;;;11.44;43.16
58072;BME280;60383;46.626;18.866;2023-03-04T08:33:25;100539.44;;;11.49;41.94
58072;BME280;60383;46.626;18.866;2023-03-04T08:35:51;100539.25;;;11.50;43.90
58072;BME280;60383;46.626;18.866;2023-03-04T08:38:17;100534.84;;;11.58;42.27
58072;BME280;60383;46.626;18.866;2023-03-04T08:40:42;100537.22;;;11.53;42.43
58072;BME280;60383;46.626;18.866;2023-03-04T08:43:07;100533.84;;;11.59;41.00
58072;BME280;60383;46.626;18.866;2023-03-04T08:45:33;100539.00;;;11.62;42.37
58072;BME280;60383;46.626;18.866;2023-03-04T08:47:58;100537.72;;;11.74;40.49
58072;BME280;60383;46.626;18.866;2023-03-04T08:50:24;100529.78;;;11.71;41.35
58072;BME280;60383;46.626;18.866;2023-03-04T08:52:51;100532.41;;;11.81;40.98
58072;BME280;60383;46.626;18.866;2023-03-04T08:55:17;100539.28;;;11.77;40.68
58072;BME280;60383;46.626;18.866;2023-03-04T08:57:43;100530.19;;;11.76;42.81
58072;BME280;60383;46.626;18.866;2023-03-04T09:00:09;100528.88;;;11.89;41.83
58072;BME280;60383;46.626;18.866;2023-03-04T09:02:34;100533.84;;;12.20;40.03
58072;BME280;60383;46.626;18.866;2023-03-04T09:05:00;100531.34;;;12.35;39.67
58072;BME280;60383;46.626;18.866;2023-03-04T09:07:25;100521.25;;;12.52;40.68
58072;BME280;60383;46.626;18.866;2023-03-04T09:09:51;100529.63;;;12.34;38.48
58072;BME280;60383;46.626;18.866;2023-03-04T09:12:16;100520.19;;;12.36;37.23
58072;BME280;60383;46.626;18.866;2023-03-04T09:14:41;100520.72;;;12.40;37.33
58072;BME280;60383;46.626;18.866;2023-03-04T09:17:07;100522.16;;;12.69;38.13
58072;BME280;60383;46.626;18.866;2023-03-04T09:19:33;100520.78;;;13.06;38.22
58072;BME280;60383;46.626;18.866;2023-03-04T09:21:58;100518.88;;;12.73;36.79
58072;BME280;60383;46.626;18.866;2023-03-04T09:24:25;100523.38;;;12.83;37.43
58072;BME280;60383;46.626;18.866;2023-03-04T09:26:51;100523.19;;;12.68;38.51
58072;BME280;60383;46.626;18.866;2023-03-04T09:29:18;100512.53;;;12.73;37.52
58072;BME280;60383;46.626;18.866;2023-03-04T09:31:43;100513.53;;;12.63;38.83
58072;BME280;60383;46.626;18.866;2023-03-04T09:34:09;100516.81;;;12.67;38.69
58072;BME280;60383;46.626;18.866;2023-03-04T09:36:34;100512.03;;;13.10;39.11
58072;BME280;60383;46.626;18.866;2023-03-04T09:39:01;100512.22;;;13.01;37.82
58072;BME280;60383;46.626;18.866;2023-03-04T09:44:11;100509.59;;;13.57;39.56
58072;BME280;60383;46.626;18.866;2023-03-04T09:46:38;100507.84;;;13.72;38.72
58072;BME280;60383;46.626;18.866;2023-03-04T09:49:05;100503.91;;;13.67;38.04
58072;BME280;60383;46.626;18.866;2023-03-04T09:54:30;100494.22;;;13.87;38.56
58072;BME280;60383;46.626;18.866;2023-03-04T09:57:26;100502.09;;;13.99;39.00
58072;BME280;60383;46.626;18.866;2023-03-04T10:05:23;100484.63;;;14.23;37.69
58072;BME280;60383;46.626;18.866;2023-03-04T10:10:55;100471.56;;;13.77;39.05
58072;BME280;60383;46.626;18.866;2023-03-04T10:13:45;100465.53;;;13.73;39.64
58072;BME280;60383;46.626;18.866;2023-03-04T10:16:18;100469.81;;;13.84;39.89
58072;BME280;60383;46.626;18.866;2023-03-04T10:18:55;100473.63;;;13.75;39.56
58072;BME280;60383;46.626;18.866;2023-03-04T10:21:29;100469.31;;;13.81;40.16
58072;BME280;60383;46.626;18.866;2023-03-04T10:23:57;100470.97;;;13.90;39.81
58072;BME280;60383;46.626;18.866;2023-03-04T10:26:28;100473.06;;;13.88;39.82
58072;BME280;60383;46.626;18.866;2023-03-04T10:28:55;100470.63;;;13.93;39.29
58072;BME280;60383;46.626;18.866;2023-03-04T10:31:32;100463.56;;;13.99;39.50
58072;BME280;60383;46.626;18.866;2023-03-04T10:33:59;100467.50;;;13.56;40.30
58072;BME280;60383;46.626;18.866;2023-03-04T10:38:57;100443.03;;;14.10;40.42
58072;BME280;60383;46.626;18.866;2023-03-04T10:41:25;100451.94;;;14.12;40.37
58072;BME280;60383;46.626;18.866;2023-03-04T10:44:10;100441.81;;;14.12;41.66
58072;BME280;60383;46.626;18.866;2023-03-04T10:46:41;100447.81;;;14.16;40.68
58072;BME280;60383;46.626;18.866;2023-03-04T10:49:09;100438.78;;;14.30;41.41
58072;BME280;60383;46.626;18.866;2023-03-04T10:52:02;100424.81;;;14.32;41.78
58072;BME280;60383;46.626;18.866;2023-03-04T10:59:42;100424.53;;;14.50;41.56
58072;BME280;60383;46.626;18.866;2023-03-04T11:02:37;100413.41;;;14.35;41.24
58072;BME280;60383;46.626;18.866;2023-03-04T11:05:16;100406.50;;;14.39;42.31
58072;BME280;60383;46.626;18.866;2023-03-04T11:07:50;100411.03;;;14.55;40.57
58072;BME280;60383;46.626;18.866;2023-03-04T11:10:30;100404.56;;;14.48;42.04
58072;BME280;60383;46.626;18.866;2023-03-04T11:13:19;100405.34;;;14.33;41.71
58072;BME280;60383;46.626;18.866;2023-03-04T11:18:31;100383.78;;;14.60;41.43
58072;BME280;60383;46.626;18.866;2023-03-04T11:20:58;100377.78;;;14.57;41.22
58072;BME280;60383;46.626;18.866;2023-03-04T11:23:44;100371.72;;;14.61;41.21
58072;BME280;60383;46.626;18.866;2023-03-04T11:26:27;100369.81;;;14.85;40.97
58072;BME280;60383;46.626;18.866;2023-03-04T11:29:16;100364.00;;;14.80;40.46
58072;BME280;60383;46.626;18.866;2023-03-04T11:31:47;100358.53;;;15.10;40.30
58072;BME280;60383;46.626;18.866;2023-03-04T11:36:55;100351.34;;;15.24;40.08
58072;BME280;60383;46.626;18.866;2023-03-04T11:39:45;100347.41;;;15.18;38.94
58072;BME280;60383;46.626;18.866;2023-03-04T11:44:59;100338.94;;;15.34;40.31
58072;BME280;60383;46.626;18.866;2023-03-04T11:47:46;100329.53;;;15.44;39.68
58072;BME280;60383;46.626;18.866;2023-03-04T11:51:14;100325.22;;;15.56;39.88
58072;BME280;60383;46.626;18.866;2023-03-04T12:04:11;100312.00;;;15.37;39.07
58072;BME280;60383;46.626;18.866;2023-03-04T12:06:54;100311.63;;;15.25;38.70
58072;BME280;60383;46.626;18.866;2023-03-04T12:15:46;100291.25;;;15.56;38.85
58072;BME280;60383;46.626;18.866;2023-03-04T12:36:39;100270.94;;;14.97;37.68
58072;BME280;60383;46.626;18.866;2023-03-04T12:53:41;100250.09;;;14.64;37.58
58072;BME280;60383;46.626;18.866;2023-03-04T12:58:45;100244.66;;;14.56;37.15
58072;BME280;60383;46.626;18.866;2023-03-04T13:01:17;100237.78;;;14.75;36.01
58072;BME280;60383;46.626;18.866;2023-03-04T13:03:59;100243.19;;;14.83;37.22
58072;BME280;60383;46.626;18.866;2023-03-04T13:07:34;100241.09;;;14.71;37.50
58072;BME280;60383;46.626;18.866;2023-03-04T13:09:51;100229.41;;;14.68;37.64
58072;BME280;60383;46.626;18.866;2023-03-04T13:12:20;100231.34;;;14.45;38.38
58072;BME280;60383;46.626;18.866;2023-03-04T13:20:35;100211.69;;;14.48;39.65
58072;BME280;60383;46.626;18.866;2023-03-04T13:25:39;100216.44;;;14.54;37.69
58072;BME280;60383;46.626;18.866;2023-03-04T14:02:01;100182.88;;;13.97;39.04
58072;BME280;60383;46.626;18.866;2023-03-04T14:04:31;100178.00;;;14.08;38.67
58072;BME280;60383;46.626;18.866;2023-03-04T14:06:59;100179.59;;;14.02;38.43
58072;BME280;60383;46.626;18.866;2023-03-04T14:09:28;100183.56;;;13.99;38.80
58072;BME280;60383;46.626;18.866;2023-03-04T14:11:57;100175.75;;;13.88;39.46
58072;BME280;60383;46.626;18.866;2023-03-04T14:14:30;100173.81;;;13.73;38.14
58072;BME280;60383;46.626;18.866;2023-03-04T14:17:02;100166.53;;;13.81;38.09
58072;BME280;60383;46.626;18.866;2023-03-04T14:19:31;100168.25;;;13.82;39.40
58072;BME280;60383;46.626;18.866;2023-03-04T14:22:00;100165.66;;;13.80;39.11
58072;BME280;60383;46.626;18.866;2023-03-04T14:24:27;100161.94;;;13.73;39.06
58072;BME280;60383;46.626;18.866;2023-03-04T14:27:21;100152.91;;;13.64;38.62
58072;BME280;60383;46.626;18.866;2023-03-04T14:29:54;100157.09;;;13.75;38.92
58072;BME280;60383;46.626;18.866;2023-03-04T14:32:20;100152.41;;;13.61;39.69
58072;BME280;60383;46.626;18.866;2023-03-04T14:34:48;100152.63;;;13.74;40.10
58072;BME280;60383;46.626;18.866;2023-03-04T14:37:22;100153.56;;;13.66;40.91
58072;BME280;60383;46.626;18.866;2023-03-04T14:39:54;100151.31;;;13.70;40.10
58072;BME280;60383;46.626;18.866;2023-03-04T14:42:22;100135.00;;;13.68;38.42
58072;BME280;60383;46.626;18.866;2023-03-04T14:44:49;100141.94;;;13.56;38.84
58072;BME280;60383;46.626;18.866;2023-03-04T14:47:19;100126.28;;;13.41;40.15
58072;BME280;60383;46.626;18.866;2023-03-04T14:49:47;100134.78;;;13.23;40.56
58072;BME280;60383;46.626;18.866;2023-03-04T14:57:33;100124.38;;;13.10;40.16
58072;BME280;60383;46.626;18.866;2023-03-04T15:02:50;100110.66;;;13.02;40.34
58072;BME280;60383;46.626;18.866;2023-03-04T15:05:19;100124.09;;;12.97;40.77